sensor_id;sensor_type;location;lat;lon;timestamp;temperature;humidity
5554;DHT22;2800;49.528;8.666;2023-06-19T00:00:03;23.50;99.90
5554;DHT22;2800;49.528;8.666;2023-06-19T00:02:33;23.50;99.90
5554;DHT22;2800;49.528;8.666;2023-06-19T00:04:58;23.40;99.90
5554;DHT22;2800;49.528;8.666;2023-06-19T00:07:24;23.40;99.90
5554;DHT22;2800;49.528;8.666;2023-06-19T00:09:49;23.30;99.90
5554;DHT22;2800;49.528;8.666;2023-06-19T00:12:15;23.30;99.90
5554;DHT22;2800;49.528;8.666;2023-06-19T00:14:40;23.30;99.90
5554;DHT22;2800;49.528;8.666;2023-06-19T00:17:06;23.20;99.90
5554;DHT22;2800;49.528;8.666;2023-06-19T00:19:32;23.00;99.90
5554;DHT22;2800;49.528;8.666;2023-06-19T00:22:02;22.90;99.90
5554;DHT22;2800;49.528;8.666;2023-06-19T00:24:28;22.90;99.90
5554;DHT22;2800;49.528;8.666;2023-06-19T00:26:54;22.80;99.90
5554;DHT22;2800;49.528;8.666;2023-06-19T00:29:19;22.60;99.90
5554;DHT22;2800;49.528;8.666;2023-06-19T00:31:45;22.50;99.90
5554;DHT22;2800;49.528;8.666;2023-06-19T00:34:10;22.40;99.90
5554;DHT22;2800;49.528;8.666;2023-06-19T00:36:36;22.30;99.90
5554;DHT22;2800;49.528;8.666;2023-06-19T00:39:06;22.30;99.90
5554;DHT22;2800;49.528;8.666;2023-06-19T00:41:35;22.30;99.90
5554;DHT22;2800;49.528;8.666;2023-06-19T00:44:01;22.50;99.90
5554;DHT22;2800;49.528;8.666;2023-06-19T00:46:26;22.60;99.90
5554;DHT22;2800;49.528;8.666;2023-06-19T00:48:52;22.40;99.90
5554;DHT22;2800;49.528;8.666;2023-06-19T00:51:18;22.40;99.90
5554;DHT22;2800;49.528;8.666;2023-06-19T00:53:43;22.40;99.90
5554;DHT22;2800;49.528;8.666;2023-06-19T00:56:09;22.50;99.90
5554;DHT22;2800;49.528;8.666;2023-06-19T00:58:35;22.50;99.90
5554;DHT22;2800;49.528;8.666;2023-06-19T01:01:01;22.50;99.90
5554;DHT22;2800;49.528;8.666;2023-06-19T01:03:26;22.40;99.90
5554;DHT22;2800;49.528;8.666;2023-06-19T01:05:53;22.30;99.90
5554;DHT22;2800;49.528;8.666;2023-06-19T01:08:48;22.20;99.90
5554;DHT22;2800;49.528;8.666;2023-06-19T01:11:20;22.20;99.90
5554;DHT22;2800;49.528;8.666;2023-06-19T01:13:55;22.10;99.90
5554;DHT22;2800;49.528;8.666;2023-06-19T01:16:23;22.00;99.90
5554;DHT22;2800;49.528;8.666;2023-06-19T01:18:50;21.90;99.90
5554;DHT22;2800;49.528;8.666;2023-06-19T01:21:17;21.70;99.90
5554;DHT22;2800;49.528;8.666;2023-06-19T01:23:43;21.10;99.90
5554;DHT22;2800;49.528;8.666;2023-06-19T01:26:09;21.40;99.90
5554;DHT22;2800;49.528;8.666;2023-06-19T01:28:36;21.50;99.90
5554;DHT22;2800;49.528;8.666;2023-06-19T01:31:20;21.70;99.90
5554;DHT22;2800;49.528;8.666;2023-06-19T01:33:47;22.00;99.90
5554;DHT22;2800;49.528;8.666;2023-06-19T01:36:14;22.20;99.90
5554;DHT22;2800;49.528;8.666;2023-06-19T01:38:40;22.50;99.90
5554;DHT22;2800;49.528;8.666;2023-06-19T01:41:08;22.50;99.90
5554;DHT22;2800;49.528;8.666;2023-06-19T01:43:35;22.60;99.90
5554;DHT22;2800;49.528;8.666;2023-06-19T01:46:01;22.70;99.90
5554;DHT22;2800;49.528;8.666;2023-06-19T01:48:28;22.70;99.90
5554;DHT22;2800;49.528;8.666;2023-06-19T01:50:53;22.60;99.90
5554;DHT22;2800;49.528;8.666;2023-06-19T01:53:19;22.60;99.90
5554;DHT22;2800;49.528;8.666;2023-06-19T01:55:45;22.60;99.90
5554;DHT22;2800;49.528;8.666;2023-06-19T01:58:10;22.60;99.90
5554;DHT22;2800;49.528;8.666;2023-06-19T02:00:36;22.60;99.90
5554;DHT22;2800;49.528;8.666;2023-06-19T02:03:03;22.60;99.90
5554;DHT22;2800;49.528;8.666;2023-06-19T02:05:29;23.00;99.90
5554;DHT22;2800;49.528;8.666;2023-06-19T02:07:55;22.50;99.90
5554;DHT22;2800;49.528;8.666;2023-06-19T02:10:20;22.40;99.90
5554;DHT22;2800;49.528;8.666;2023-06-19T02:12:46;22.30;99.90
5554;DHT22;2800;49.528;8.666;2023-06-19T02:15:12;22.30;99.90
5554;DHT22;2800;49.528;8.666;2023-06-19T02:17:37;22.30;99.90
5554;DHT22;2800;49.528;8.666;2023-06-19T02:20:03;22.30;99.90
5554;DHT22;2800;49.528;8.666;2023-06-19T02:22:33;22.30;99.90
5554;DHT22;2800;49.528;8.666;2023-06-19T02:24:58;22.20;99.90
5554;DHT22;2800;49.528;8.666;2023-06-19T02:27:24;22.90;99.90
5554;DHT22;2800;49.528;8.666;2023-06-19T02:29:49;22.30;99.90
5554;DHT22;2800;49.528;8.666;2023-06-19T02:32:15;22.20;99.90
5554;DHT22;2800;49.528;8.666;2023-06-19T02:34:41;22.30;99.90
5554;DHT22;2800;49.528;8.666;2023-06-19T02:37:09;22.40;99.90
5554;DHT22;2800;49.528;8.666;2023-06-19T02:39:35;22.00;99.90
5554;DHT22;2800;49.528;8.666;2023-06-19T02:42:00;22.20;99.90
5554;DHT22;2800;49.528;8.666;2023-06-19T02:44:26;22.30;99.90
5554;DHT22;2800;49.528;8.666;2023-06-19T02:46:51;22.20;99.90
5554;DHT22;2800;49.528;8.666;2023-06-19T02:49:17;22.20;99.90
5554;DHT22;2800;49.528;8.666;2023-06-19T02:51:42;22.20;99.90
5554;DHT22;2800;49.528;8.666;2023-06-19T02:54:08;22.20;99.90
5554;DHT22;2800;49.528;8.666;2023-06-19T02:56:34;22.20;99.90
5554;DHT22;2800;49.528;8.666;2023-06-19T02:58:59;22.20;99.90
5554;DHT22;2800;49.528;8.666;2023-06-19T03:01:25;22.20;99.90
5554;DHT22;2800;49.528;8.666;2023-06-19T03:03:50;22.20;99.90
5554;DHT22;2800;49.528;8.666;2023-06-19T03:06:17;22.20;99.90
5554;DHT22;2800;49.528;8.666;2023-06-19T03:08:43;22.20;99.90
5554;DHT22;2800;49.528;8.666;2023-06-19T03:11:08;22.20;99.90
5554;DHT22;2800;49.528;8.666;2023-06-19T03:16:10;22.10;99.90
5554;DHT22;2800;49.528;8.666;2023-06-19T03:18:35;22.00;99.90
5554;DHT22;2800;49.528;8.666;2023-06-19T03:21:00;22.00;99.90
5554;DHT22;2800;49.528;8.666;2023-06-19T03:23:26;22.00;99.90
5554;DHT22;2800;49.528;8.666;2023-06-19T03:25:51;21.90;99.90
5554;DHT22;2800;49.528;8.666;2023-06-19T03:28:18;21.80;99.90
5554;DHT22;2800;49.528;8.666;2023-06-19T03:30:44;21.80;99.90
5554;DHT22;2800;49.528;8.666;2023-06-19T03:33:09;21.70;99.90
5554;DHT22;2800;49.528;8.666;2023-06-19T03:35:35;21.70;99.90
5554;DHT22;2800;49.528;8.666;2023-06-19T03:38:00;21.60;99.90
5554;DHT22;2800;49.528;8.666;2023-06-19T03:40:26;21.50;99.90
5554;DHT22;2800;49.528;8.666;2023-06-19T03:42:51;21.40;99.90
5554;DHT22;2800;49.528;8.666;2023-06-19T03:45:17;21.30;99.90
5554;DHT22;2800;49.528;8.666;2023-06-19T03:47:42;21.10;99.90
5554;DHT22;2800;49.528;8.666;2023-06-19T03:50:08;21.00;99.90
5554;DHT22;2800;49.528;8.666;2023-06-19T03:52:36;20.90;99.90
5554;DHT22;2800;49.528;8.666;2023-06-19T03:55:03;20.80;99.90
5554;DHT22;2800;49.528;8.666;2023-06-19T03:57:28;20.80;99.90
5554;DHT22;2800;49.528;8.666;2023-06-19T03:59:54;21.00;99.90
5554;DHT22;2800;49.528;8.666;2023-06-19T04:02:20;20.80;99.90
5554;DHT22;2800;49.528;8.666;2023-06-19T04:04:45;20.80;99.90
5554;DHT22;2800;49.528;8.666;2023-06-19T04:07:11;20.80;99.90
5554;DHT22;2800;49.528;8.666;2023-06-19T04:09:36;20.70;99.90
5554;DHT22;2800;49.528;8.666;2023-06-19T04:12:02;20.70;99.90
5554;DHT22;2800;49.528;8.666;2023-06-19T04:14:28;20.70;99.90
5554;DHT22;2800;49.528;8.666;2023-06-19T04:16:53;21.20;99.90
5554;DHT22;2800;49.528;8.666;2023-06-19T04:19:19;20.80;99.90
5554;DHT22;2800;49.528;8.666;2023-06-19T04:21:45;20.70;99.90
5554;DHT22;2800;49.528;8.666;2023-06-19T04:24:10;20.70;99.90
5554;DHT22;2800;49.528;8.666;2023-06-19T04:26:36;20.80;99.90
5554;DHT22;2800;49.528;8.666;2023-06-19T04:29:04;20.90;99.90
5554;DHT22;2800;49.528;8.666;2023-06-19T04:31:32;20.90;99.90
5554;DHT22;2800;49.528;8.666;2023-06-19T04:33:57;20.90;99.90
5554;DHT22;2800;49.528;8.666;2023-06-19T04:36:23;20.90;99.90
5554;DHT22;2800;49.528;8.666;2023-06-19T04:38:48;20.90;99.90
5554;DHT22;2800;49.528;8.666;2023-06-19T04:41:17;20.90;99.90
5554;DHT22;2800;49.528;8.666;2023-06-19T04:43:42;20.80;99.90
5554;DHT22;2800;49.528;8.666;2023-06-19T04:46:08;20.80;99.90
5554;DHT22;2800;49.528;8.666;2023-06-19T04:48:33;20.60;99.90
5554;DHT22;2800;49.528;8.666;2023-06-19T04:51:01;20.80;99.90
5554;DHT22;2800;49.528;8.666;2023-06-19T04:53:27;20.80;99.90
5554;DHT22;2800;49.528;8.666;2023-06-19T04:55:53;20.80;99.90
5554;DHT22;2800;49.528;8.666;2023-06-19T04:58:21;20.80;99.90
5554;DHT22;2800;49.528;8.666;2023-06-19T05:00:47;20.80;99.90
5554;DHT22;2800;49.528;8.666;2023-06-19T05:03:17;21.30;99.90
5554;DHT22;2800;49.528;8.666;2023-06-19T05:05:43;21.20;99.90
5554;DHT22;2800;49.528;8.666;2023-06-19T05:08:09;21.00;99.90
5554;DHT22;2800;49.528;8.666;2023-06-19T05:10:34;21.00;99.90
5554;DHT22;2800;49.528;8.666;2023-06-19T05:13:00;21.20;99.90
5554;DHT22;2800;49.528;8.666;2023-06-19T05:15:27;21.00;99.90
5554;DHT22;2800;49.528;8.666;2023-06-19T05:17:53;21.00;99.90
5554;DHT22;2800;49.528;8.666;2023-06-19T05:20:19;21.10;99.90
5554;DHT22;2800;49.528;8.666;2023-06-19T05:22:44;21.70;99.90
5554;DHT22;2800;49.528;8.666;2023-06-19T05:25:10;21.10;99.90
5554;DHT22;2800;49.528;8.666;2023-06-19T05:27:36;21.10;99.90
5554;DHT22;2800;49.528;8.666;2023-06-19T05:30:01;21.20;99.90
5554;DHT22;2800;49.528;8.666;2023-06-19T05:32:27;21.30;99.90
5554;DHT22;2800;49.528;8.666;2023-06-19T05:34:53;21.30;99.90
5554;DHT22;2800;49.528;8.666;2023-06-19T05:37:18;22.10;99.90
5554;DHT22;2800;49.528;8.666;2023-06-19T05:39:44;21.30;99.90
5554;DHT22;2800;49.528;8.666;2023-06-19T05:42:09;21.30;99.90
5554;DHT22;2800;49.528;8.666;2023-06-19T05:44:35;21.20;99.90
5554;DHT22;2800;49.528;8.666;2023-06-19T05:47:00;21.40;99.90
5554;DHT22;2800;49.528;8.666;2023-06-19T05:49:26;21.40;99.90
5554;DHT22;2800;49.528;8.666;2023-06-19T05:51:51;21.40;99.90
5554;DHT22;2800;49.528;8.666;2023-06-19T05:54:17;21.30;99.90
5554;DHT22;2800;49.528;8.666;2023-06-19T05:56:43;21.30;99.90
5554;DHT22;2800;49.528;8.666;2023-06-19T05:59:08;21.40;99.90
5554;DHT22;2800;49.528;8.666;2023-06-19T06:01:34;21.50;99.90
5554;DHT22;2800;49.528;8.666;2023-06-19T06:04:00;21.40;99.90
5554;DHT22;2800;49.528;8.666;2023-06-19T06:06:27;21.50;99.90
5554;DHT22;2800;49.528;8.666;2023-06-19T06:08:53;21.70;99.90
5554;DHT22;2800;49.528;8.666;2023-06-19T06:11:20;21.50;99.90
5554;DHT22;2800;49.528;8.666;2023-06-19T06:13:46;21.60;99.90
5554;DHT22;2800;49.528;8.666;2023-06-19T06:16:11;21.60;99.90
5554;DHT22;2800;49.528;8.666;2023-06-19T06:18:37;21.70;99.90
5554;DHT22;2800;49.528;8.666;2023-06-19T06:21:02;21.90;99.90
5554;DHT22;2800;49.528;8.666;2023-06-19T06:23:29;22.00;99.90
5554;DHT22;2800;49.528;8.666;2023-06-19T06:25:54;22.00;99.90
5554;DHT22;2800;49.528;8.666;2023-06-19T06:28:26;22.20;99.90
5554;DHT22;2800;49.528;8.666;2023-06-19T06:30:52;22.20;99.90
5554;DHT22;2800;49.528;8.666;2023-06-19T06:33:17;22.30;99.90
5554;DHT22;2800;49.528;8.666;2023-06-19T06:35:43;21.90;99.90
5554;DHT22;2800;49.528;8.666;2023-06-19T06:38:09;22.40;99.90
5554;DHT22;2800;49.528;8.666;2023-06-19T06:40:35;22.40;99.90
5554;DHT22;2800;49.528;8.666;2023-06-19T06:43:00;22.50;99.90
5554;DHT22;2800;49.528;8.666;2023-06-19T06:45:26;22.60;99.90
5554;DHT22;2800;49.528;8.666;2023-06-19T06:47:51;22.70;99.90
5554;DHT22;2800;49.528;8.666;2023-06-19T06:50:17;23.00;99.90
5554;DHT22;2800;49.528;8.666;2023-06-19T06:52:42;22.90;99.90
5554;DHT22;2800;49.528;8.666;2023-06-19T06:55:08;23.00;99.90
5554;DHT22;2800;49.528;8.666;2023-06-19T06:57:35;23.40;99.90
5554;DHT22;2800;49.528;8.666;2023-06-19T07:00:01;23.30;99.90
5554;DHT22;2800;49.528;8.666;2023-06-19T07:02:28;23.50;99.90
5554;DHT22;2800;49.528;8.666;2023-06-19T07:04:54;23.50;99.90
5554;DHT22;2800;49.528;8.666;2023-06-19T07:07:20;23.30;99.90
5554;DHT22;2800;49.528;8.666;2023-06-19T07:09:46;23.10;99.90
5554;DHT22;2800;49.528;8.666;2023-06-19T07:12:11;23.10;99.90
5554;DHT22;2800;49.528;8.666;2023-06-19T07:14:37;23.40;99.90
5554;DHT22;2800;49.528;8.666;2023-06-19T07:17:03;23.40;99.90
5554;DHT22;2800;49.528;8.666;2023-06-19T07:19:28;23.50;99.90
5554;DHT22;2800;49.528;8.666;2023-06-19T07:21:55;23.60;99.90
5554;DHT22;2800;49.528;8.666;2023-06-19T07:24:20;23.90;99.90
5554;DHT22;2800;49.528;8.666;2023-06-19T07:26:46;23.60;99.90
5554;DHT22;2800;49.528;8.666;2023-06-19T07:29:12;23.60;99.90
5554;DHT22;2800;49.528;8.666;2023-06-19T07:31:37;23.80;99.90
5554;DHT22;2800;49.528;8.666;2023-06-19T07:34:03;23.70;99.90
5554;DHT22;2800;49.528;8.666;2023-06-19T07:36:29;24.10;99.90
5554;DHT22;2800;49.528;8.666;2023-06-19T07:38:55;24.30;99.90
5554;DHT22;2800;49.528;8.666;2023-06-19T07:41:21;23.80;99.90
5554;DHT22;2800;49.528;8.666;2023-06-19T07:43:46;24.30;99.90
5554;DHT22;2800;49.528;8.666;2023-06-19T07:46:12;24.10;99.90
5554;DHT22;2800;49.528;8.666;2023-06-19T07:48:37;24.40;99.90
5554;DHT22;2800;49.528;8.666;2023-06-19T07:51:03;24.90;99.90
5554;DHT22;2800;49.528;8.666;2023-06-19T07:53:28;25.40;99.90
5554;DHT22;2800;49.528;8.666;2023-06-19T07:55:54;24.90;99.90
5554;DHT22;2800;49.528;8.666;2023-06-19T07:58:19;24.90;99.90
5554;DHT22;2800;49.528;8.666;2023-06-19T08:00:45;24.60;99.90
5554;DHT22;2800;49.528;8.666;2023-06-19T08:03:10;24.90;99.90
5554;DHT22;2800;49.528;8.666;2023-06-19T08:05:36;24.70;99.90
5554;DHT22;2800;49.528;8.666;2023-06-19T08:08:01;24.70;99.90
5554;DHT22;2800;49.528;8.666;2023-06-19T08:10:27;24.90;99.90
5554;DHT22;2800;49.528;8.666;2023-06-19T08:12:53;25.10;99.90
5554;DHT22;2800;49.528;8.666;2023-06-19T08:15:19;25.00;99.90
5554;DHT22;2800;49.528;8.666;2023-06-19T08:17:44;25.00;99.90
5554;DHT22;2800;49.528;8.666;2023-06-19T08:20:10;25.10;99.90
5554;DHT22;2800;49.528;8.666;2023-06-19T08:22:36;24.50;99.90
5554;DHT22;2800;49.528;8.666;2023-06-19T08:25:02;23.80;99.90
5554;DHT22;2800;49.528;8.666;2023-06-19T08:27:28;24.50;99.90
5554;DHT22;2800;49.528;8.666;2023-06-19T08:29:53;24.30;99.90
5554;DHT22;2800;49.528;8.666;2023-06-19T08:32:19;23.80;99.90
5554;DHT22;2800;49.528;8.666;2023-06-19T08:34:45;23.60;99.90
5554;DHT22;2800;49.528;8.666;2023-06-19T08:37:10;23.80;99.90
5554;DHT22;2800;49.528;8.666;2023-06-19T08:39:36;24.20;99.90
5554;DHT22;2800;49.528;8.666;2023-06-19T08:42:06;24.60;99.90
5554;DHT22;2800;49.528;8.666;2023-06-19T08:44:33;24.10;99.90
5554;DHT22;2800;49.528;8.666;2023-06-19T08:46:59;23.70;99.90
5554;DHT22;2800;49.528;8.666;2023-06-19T08:49:25;23.60;99.90
5554;DHT22;2800;49.528;8.666;2023-06-19T08:51:51;23.60;99.90
5554;DHT22;2800;49.528;8.666;2023-06-19T08:54:17;23.50;99.90
5554;DHT22;2800;49.528;8.666;2023-06-19T08:56:43;23.80;99.90
5554;DHT22;2800;49.528;8.666;2023-06-19T08:59:14;24.40;99.90
5554;DHT22;2800;49.528;8.666;2023-06-19T09:01:40;24.50;99.90
5554;DHT22;2800;49.528;8.666;2023-06-19T09:04:10;24.90;99.90
5554;DHT22;2800;49.528;8.666;2023-06-19T09:06:45;25.40;99.90
5554;DHT22;2800;49.528;8.666;2023-06-19T09:09:13;24.90;99.90
5554;DHT22;2800;49.528;8.666;2023-06-19T09:11:39;25.90;99.90
5554;DHT22;2800;49.528;8.666;2023-06-19T09:14:09;25.50;99.90
5554;DHT22;2800;49.528;8.666;2023-06-19T09:16:40;24.60;99.90
5554;DHT22;2800;49.528;8.666;2023-06-19T09:19:06;24.50;99.90
5554;DHT22;2800;49.528;8.666;2023-06-19T09:21:34;24.50;99.90
5554;DHT22;2800;49.528;8.666;2023-06-19T09:24:07;24.60;99.90
5554;DHT22;2800;49.528;8.666;2023-06-19T09:26:34;24.90;99.90
5554;DHT22;2800;49.528;8.666;2023-06-19T09:29:15;25.20;99.90
5554;DHT22;2800;49.528;8.666;2023-06-19T09:31:42;25.30;99.90
5554;DHT22;2800;49.528;8.666;2023-06-19T09:34:08;26.20;99.90
5554;DHT22;2800;49.528;8.666;2023-06-19T09:36:35;25.70;99.90
5554;DHT22;2800;49.528;8.666;2023-06-19T09:39:02;25.30;99.90
5554;DHT22;2800;49.528;8.666;2023-06-19T09:41:29;25.20;99.90
5554;DHT22;2800;49.528;8.666;2023-06-19T09:43:56;25.40;99.90
5554;DHT22;2800;49.528;8.666;2023-06-19T09:46:26;25.50;99.90
5554;DHT22;2800;49.528;8.666;2023-06-19T09:48:54;25.20;99.90
5554;DHT22;2800;49.528;8.666;2023-06-19T09:51:29;25.70;99.90
5554;DHT22;2800;49.528;8.666;2023-06-19T09:53:56;26.70;99.90
5554;DHT22;2800;49.528;8.666;2023-06-19T09:56:24;26.80;99.90
5554;DHT22;2800;49.528;8.666;2023-06-19T09:58:53;25.70;99.90
5554;DHT22;2800;49.528;8.666;2023-06-19T10:01:19;25.90;99.90
5554;DHT22;2800;49.528;8.666;2023-06-19T10:03:45;26.40;99.90
5554;DHT22;2800;49.528;8.666;2023-06-19T10:06:15;25.90;99.90
5554;DHT22;2800;49.528;8.666;2023-06-19T10:08:45;26.40;99.90
5554;DHT22;2800;49.528;8.666;2023-06-19T10:11:12;27.10;99.90
5554;DHT22;2800;49.528;8.666;2023-06-19T10:13:40;27.90;99.90
5554;DHT22;2800;49.528;8.666;2023-06-19T10:16:07;26.70;99.90
5554;DHT22;2800;49.528;8.666;2023-06-19T10:18:44;27.00;99.90
5554;DHT22;2800;49.528;8.666;2023-06-19T10:21:18;25.90;99.90
5554;DHT22;2800;49.528;8.666;2023-06-19T10:23:56;26.60;99.90
5554;DHT22;2800;49.528;8.666;2023-06-19T10:26:31;26.70;99.90
5554;DHT22;2800;49.528;8.666;2023-06-19T10:28:56;27.70;99.90
5554;DHT22;2800;49.528;8.666;2023-06-19T10:31:22;27.10;99.90
5554;DHT22;2800;49.528;8.666;2023-06-19T10:33:47;27.30;99.90
5554;DHT22;2800;49.528;8.666;2023-06-19T10:36:21;28.00;99.90
5554;DHT22;2800;49.528;8.666;2023-06-19T10:38:51;27.80;99.90
5554;DHT22;2800;49.528;8.666;2023-06-19T10:41:20;28.40;99.90
5554;DHT22;2800;49.528;8.666;2023-06-19T10:44:05;28.90;99.90
5554;DHT22;2800;49.528;8.666;2023-06-19T10:46:35;28.60;99.90
5554;DHT22;2800;49.528;8.666;2023-06-19T10:49:02;27.90;99.90
5554;DHT22;2800;49.528;8.666;2023-06-19T10:51:40;28.60;99.90
5554;DHT22;2800;49.528;8.666;2023-06-19T10:54:07;28.80;99.90
5554;DHT22;2800;49.528;8.666;2023-06-19T10:56:33;29.60;99.90
5554;DHT22;2800;49.528;8.666;2023-06-19T10:59:03;30.50;99.90
5554;DHT22;2800;49.528;8.666;2023-06-19T11:01:34;29.30;99.90
5554;DHT22;2800;49.528;8.666;2023-06-19T11:04:05;29.70;99.90
5554;DHT22;2800;49.528;8.666;2023-06-19T11:06:32;29.60;99.90
5554;DHT22;2800;49.528;8.666;2023-06-19T11:08:58;30.30;99.90
5554;DHT22;2800;49.528;8.666;2023-06-19T11:11:38;28.80;99.90
5554;DHT22;2800;49.528;8.666;2023-06-19T11:14:04;28.90;99.90
5554;DHT22;2800;49.528;8.666;2023-06-19T11:16:29;30.10;99.90
5554;DHT22;2800;49.528;8.666;2023-06-19T11:18:58;29.40;99.90
5554;DHT22;2800;49.528;8.666;2023-06-19T11:21:34;30.00;99.90
5554;DHT22;2800;49.528;8.666;2023-06-19T11:24:11;30.70;99.90
5554;DHT22;2800;49.528;8.666;2023-06-19T11:26:41;30.90;99.90
5554;DHT22;2800;49.528;8.666;2023-06-19T11:29:30;31.10;99.90
5554;DHT22;2800;49.528;8.666;2023-06-19T11:32:07;30.30;99.90
5554;DHT22;2800;49.528;8.666;2023-06-19T11:34:34;30.70;99.90
5554;DHT22;2800;49.528;8.666;2023-06-19T11:37:02;28.10;99.90
5554;DHT22;2800;49.528;8.666;2023-06-19T11:39:28;29.70;99.90
5554;DHT22;2800;49.528;8.666;2023-06-19T11:41:54;30.30;99.90
5554;DHT22;2800;49.528;8.666;2023-06-19T11:44:19;30.50;99.90
5554;DHT22;2800;49.528;8.666;2023-06-19T11:46:45;31.00;99.90
5554;DHT22;2800;49.528;8.666;2023-06-19T11:49:16;30.70;99.90
5554;DHT22;2800;49.528;8.666;2023-06-19T11:51:43;31.00;99.90
5554;DHT22;2800;49.528;8.666;2023-06-19T11:54:10;31.20;99.90
5554;DHT22;2800;49.528;8.666;2023-06-19T11:56:36;31.60;99.90
5554;DHT22;2800;49.528;8.666;2023-06-19T11:59:02;31.80;99.90
5554;DHT22;2800;49.528;8.666;2023-06-19T12:01:28;32.20;99.90
5554;DHT22;2800;49.528;8.666;2023-06-19T12:03:55;31.60;99.90
5554;DHT22;2800;49.528;8.666;2023-06-19T12:06:20;30.90;99.90
5554;DHT22;2800;49.528;8.666;2023-06-19T12:08:46;31.20;99.90
5554;DHT22;2800;49.528;8.666;2023-06-19T12:11:11;31.40;99.90
5554;DHT22;2800;49.528;8.666;2023-06-19T12:13:40;29.30;99.90
5554;DHT22;2800;49.528;8.666;2023-06-19T12:16:05;28.90;99.90
5554;DHT22;2800;49.528;8.666;2023-06-19T12:18:31;29.10;99.90
5554;DHT22;2800;49.528;8.666;2023-06-19T12:20:56;28.80;99.90
5554;DHT22;2800;49.528;8.666;2023-06-19T12:23:22;29.30;99.90
5554;DHT22;2800;49.528;8.666;2023-06-19T12:25:47;29.30;99.90
5554;DHT22;2800;49.528;8.666;2023-06-19T12:28:13;28.70;99.90
5554;DHT22;2800;49.528;8.666;2023-06-19T12:30:43;29.10;99.90
5554;DHT22;2800;49.528;8.666;2023-06-19T12:33:09;29.60;99.90
5554;DHT22;2800;49.528;8.666;2023-06-19T12:35:35;29.20;99.90
5554;DHT22;2800;49.528;8.666;2023-06-19T12:38:01;29.60;99.90
5554;DHT22;2800;49.528;8.666;2023-06-19T12:40:27;29.10;99.90
5554;DHT22;2800;49.528;8.666;2023-06-19T12:42:52;29.60;99.90
5554;DHT22;2800;49.528;8.666;2023-06-19T12:45:18;29.80;99.90
5554;DHT22;2800;49.528;8.666;2023-06-19T12:47:43;29.90;99.90
5554;DHT22;2800;49.528;8.666;2023-06-19T12:50:09;30.00;99.90
5554;DHT22;2800;49.528;8.666;2023-06-19T12:52:36;29.90;99.90
5554;DHT22;2800;49.528;8.666;2023-06-19T12:55:02;29.70;99.90
5554;DHT22;2800;49.528;8.666;2023-06-19T12:57:28;30.00;99.90
5554;DHT22;2800;49.528;8.666;2023-06-19T12:59:53;29.30;99.90
5554;DHT22;2800;49.528;8.666;2023-06-19T13:02:19;29.30;99.90
5554;DHT22;2800;49.528;8.666;2023-06-19T13:04:44;30.80;99.90
5554;DHT22;2800;49.528;8.666;2023-06-19T13:07:10;31.40;99.90
5554;DHT22;2800;49.528;8.666;2023-06-19T13:09:35;31.40;99.90
5554;DHT22;2800;49.528;8.666;2023-06-19T13:12:02;30.60;99.90
5554;DHT22;2800;49.528;8.666;2023-06-19T13:14:27;31.20;99.90
5554;DHT22;2800;49.528;8.666;2023-06-19T13:16:53;31.50;99.90
5554;DHT22;2800;49.528;8.666;2023-06-19T13:19:19;30.50;99.90
5554;DHT22;2800;49.528;8.666;2023-06-19T13:21:44;30.40;99.90
5554;DHT22;2800;49.528;8.666;2023-06-19T13:24:10;30.70;99.90
5554;DHT22;2800;49.528;8.666;2023-06-19T13:26:36;31.30;99.90
5554;DHT22;2800;49.528;8.666;2023-06-19T13:29:02;31.90;99.90
5554;DHT22;2800;49.528;8.666;2023-06-19T13:31:27;33.00;99.90
5554;DHT22;2800;49.528;8.666;2023-06-19T13:33:53;34.10;99.90
5554;DHT22;2800;49.528;8.666;2023-06-19T13:36:19;34.30;99.90
5554;DHT22;2800;49.528;8.666;2023-06-19T13:38:45;33.50;99.90
5554;DHT22;2800;49.528;8.666;2023-06-19T13:41:12;33.30;99.90
5554;DHT22;2800;49.528;8.666;2023-06-19T13:43:37;34.50;99.90
5554;DHT22;2800;49.528;8.666;2023-06-19T13:46:05;35.60;99.90
5554;DHT22;2800;49.528;8.666;2023-06-19T13:48:31;35.70;99.90
5554;DHT22;2800;49.528;8.666;2023-06-19T13:50:58;33.50;99.90
5554;DHT22;2800;49.528;8.666;2023-06-19T13:53:24;32.20;99.90
5554;DHT22;2800;49.528;8.666;2023-06-19T13:55:50;32.10;99.90
5554;DHT22;2800;49.528;8.666;2023-06-19T13:58:16;32.40;99.90
5554;DHT22;2800;49.528;8.666;2023-06-19T14:00:41;32.60;99.90
5554;DHT22;2800;49.528;8.666;2023-06-19T14:03:07;32.50;99.90
5554;DHT22;2800;49.528;8.666;2023-06-19T14:05:33;32.10;99.90
5554;DHT22;2800;49.528;8.666;2023-06-19T14:07:59;32.10;99.90
5554;DHT22;2800;49.528;8.666;2023-06-19T14:10:25;32.10;99.90
5554;DHT22;2800;49.528;8.666;2023-06-19T14:12:50;31.60;99.90
5554;DHT22;2800;49.528;8.666;2023-06-19T14:15:16;31.40;99.90
5554;DHT22;2800;49.528;8.666;2023-06-19T14:17:41;30.70;99.90
5554;DHT22;2800;49.528;8.666;2023-06-19T14:20:10;30.50;99.90
5554;DHT22;2800;49.528;8.666;2023-06-19T14:22:36;30.90;99.90
5554;DHT22;2800;49.528;8.666;2023-06-19T14:25:01;30.60;99.90
5554;DHT22;2800;49.528;8.666;2023-06-19T14:27:28;30.90;99.90
5554;DHT22;2800;49.528;8.666;2023-06-19T14:29:57;31.40;99.90
5554;DHT22;2800;49.528;8.666;2023-06-19T14:32:23;31.50;99.90
5554;DHT22;2800;49.528;8.666;2023-06-19T14:34:51;31.40;99.90
5554;DHT22;2800;49.528;8.666;2023-06-19T14:37:17;31.40;99.90
5554;DHT22;2800;49.528;8.666;2023-06-19T14:39:43;31.80;99.90
5554;DHT22;2800;49.528;8.666;2023-06-19T14:42:08;31.30;99.90
5554;DHT22;2800;49.528;8.666;2023-06-19T14:44:36;31.10;99.90
5554;DHT22;2800;49.528;8.666;2023-06-19T14:47:01;31.20;99.90
5554;DHT22;2800;49.528;8.666;2023-06-19T14:49:27;31.10;99.90
5554;DHT22;2800;49.528;8.666;2023-06-19T14:51:53;31.50;99.90
5554;DHT22;2800;49.528;8.666;2023-06-19T14:54:19;31.50;99.90
5554;DHT22;2800;49.528;8.666;2023-06-19T14:56:44;31.20;99.90
5554;DHT22;2800;49.528;8.666;2023-06-19T14:59:13;31.70;99.90
5554;DHT22;2800;49.528;8.666;2023-06-19T15:01:39;31.40;99.90
5554;DHT22;2800;49.528;8.666;2023-06-19T15:04:05;31.20;99.90
5554;DHT22;2800;49.528;8.666;2023-06-19T15:06:31;31.60;99.90
5554;DHT22;2800;49.528;8.666;2023-06-19T15:08:56;31.50;99.90
5554;DHT22;2800;49.528;8.666;2023-06-19T15:11:22;31.60;99.90
5554;DHT22;2800;49.528;8.666;2023-06-19T15:13:47;31.20;99.90
5554;DHT22;2800;49.528;8.666;2023-06-19T15:16:13;32.00;99.90
5554;DHT22;2800;49.528;8.666;2023-06-19T15:18:39;32.20;99.90
5554;DHT22;2800;49.528;8.666;2023-06-19T15:21:05;32.40;99.90
5554;DHT22;2800;49.528;8.666;2023-06-19T15:23:32;32.00;99.90
5554;DHT22;2800;49.528;8.666;2023-06-19T15:25:58;32.10;99.90
5554;DHT22;2800;49.528;8.666;2023-06-19T15:28:24;32.20;99.90
5554;DHT22;2800;49.528;8.666;2023-06-19T15:30:50;32.50;99.90
5554;DHT22;2800;49.528;8.666;2023-06-19T15:33:15;32.00;99.90
5554;DHT22;2800;49.528;8.666;2023-06-19T15:35:41;32.00;99.90
5554;DHT22;2800;49.528;8.666;2023-06-19T15:38:07;31.70;99.90
5554;DHT22;2800;49.528;8.666;2023-06-19T15:40:32;31.80;99.90
5554;DHT22;2800;49.528;8.666;2023-06-19T15:42:58;31.60;99.90
5554;DHT22;2800;49.528;8.666;2023-06-19T15:45:24;31.40;99.90
5554;DHT22;2800;49.528;8.666;2023-06-19T15:47:49;31.00;99.90
5554;DHT22;2800;49.528;8.666;2023-06-19T15:50:15;30.90;99.90
5554;DHT22;2800;49.528;8.666;2023-06-19T15:52:41;30.90;99.90
5554;DHT22;2800;49.528;8.666;2023-06-19T15:55:06;30.30;99.90
5554;DHT22;2800;49.528;8.666;2023-06-19T15:57:32;30.00;99.90
5554;DHT22;2800;49.528;8.666;2023-06-19T15:59:58;29.80;99.90